createdAt,value
2022-12-13T00:01:50.394Z,55.60
2022-12-13T00:04:37.408Z,51.10
2022-12-13T00:07:24.359Z,47.50
2022-12-13T00:10:11.371Z,52.53
2022-12-13T00:12:59.148Z,47.50
2022-12-13T00:15:59.407Z,42.53
2022-12-13T00:18:57.720Z,45.73
2022-12-13T00:21:44.974Z,42.60
2022-12-13T00:24:32.023Z,45.60
2022-12-13T00:27:19.079Z,45.10
2022-12-13T00:30:06.441Z,40.27
2022-12-13T00:32:53.453Z,40.33
2022-12-13T00:35:41.528Z,41.50
2022-12-13T00:38:28.488Z,45.20
2022-12-13T00:41:18.479Z,44.43
2022-12-13T00:44:05.836Z,46.30
2022-12-13T00:46:53.281Z,41.77
2022-12-13T00:49:40.388Z,41.63
2022-12-13T00:52:27.371Z,40.80
2022-12-13T00:55:14.463Z,45.30
2022-12-13T00:58:01.536Z,48.57
2022-12-13T01:00:48.531Z,40.07
2022-12-13T01:03:36.002Z,42.60
2022-12-13T01:06:38.759Z,45.20
2022-12-13T01:09:31.327Z,37.40
2022-12-13T01:12:18.361Z,40.43
2022-12-13T01:15:06.621Z,39.57
2022-12-13T01:17:53.611Z,39.90
2022-12-13T01:20:40.745Z,41.73
2022-12-13T01:23:28.584Z,41.83
2022-12-13T01:26:19.004Z,40.27
2022-12-13T01:29:06.066Z,41.57
2022-12-13T01:31:54.413Z,44.03
2022-12-13T01:34:41.394Z,36.70
2022-12-13T01:37:28.368Z,43.83
2022-12-13T01:40:16.303Z,40.23
2022-12-13T01:43:03.535Z,37.97
2022-12-13T01:46:01.877Z,41.97
2022-12-13T01:49:20.233Z,33.13
2022-12-13T01:52:12.075Z,44.03
2022-12-13T01:55:03.290Z,41.60
2022-12-13T01:57:53.243Z,35.37
2022-12-13T02:00:41.538Z,41.93
2022-12-13T02:03:29.006Z,42.47
2022-12-13T02:06:27.384Z,36.50
2022-12-13T02:09:15.533Z,37.63
2022-12-13T02:12:03.367Z,37.30
2022-12-13T02:14:52.000Z,42.90
2022-12-13T02:18:03.291Z,39.57
2022-12-13T02:21:13.225Z,42.83
2022-12-13T02:24:44.599Z,35.63
2022-12-13T02:28:31.807Z,38.13
2022-12-13T02:31:29.966Z,41.80
2022-12-13T02:34:25.808Z,38.13
2022-12-13T02:37:26.441Z,32.17
2022-12-13T02:40:28.779Z,34.77
2022-12-13T02:43:25.921Z,45.03
2022-12-13T02:46:24.623Z,39.57
2022-12-13T02:49:13.386Z,43.17
2022-12-13T02:52:01.529Z,37.17
2022-12-13T02:54:48.903Z,39.90
2022-12-13T02:57:38.483Z,37.73
2022-12-13T03:00:43.288Z,38.37
2022-12-13T03:03:56.129Z,40.43
2022-12-13T03:07:19.153Z,40.67
2022-12-13T03:10:15.502Z,39.93
2022-12-13T03:13:27.233Z,38.90
2022-12-13T03:16:28.180Z,40.57
2022-12-13T03:19:15.170Z,32.17
2022-12-13T03:22:06.267Z,38.60
2022-12-13T03:24:53.299Z,35.63
2022-12-13T03:27:40.905Z,41.47
2022-12-13T03:30:27.895Z,38.40
2022-12-13T03:33:14.888Z,44.70
2022-12-13T03:36:02.604Z,39.00
2022-12-13T03:38:52.489Z,42.63
2022-12-13T03:41:39.516Z,40.67
2022-12-13T03:44:31.344Z,40.17
2022-12-13T03:47:18.818Z,42.80
2022-12-13T03:50:07.411Z,41.13
2022-12-13T03:53:23.265Z,36.80
2022-12-13T03:56:19.938Z,38.87
2022-12-13T03:59:07.541Z,35.77
2022-12-13T04:01:54.618Z,35.73
2022-12-13T04:04:42.452Z,38.60
2022-12-13T04:07:34.337Z,38.50
2022-12-13T04:10:25.253Z,33.33
2022-12-13T04:13:32.489Z,35.70
2022-12-13T04:16:20.384Z,36.50
2022-12-13T04:19:07.681Z,36.63
2022-12-13T04:21:55.077Z,39.80
2022-12-13T04:24:42.072Z,40.70
2022-12-13T04:27:29.076Z,37.50
2022-12-13T04:30:16.153Z,46.17
2022-12-13T04:33:03.764Z,42.87
2022-12-13T04:35:51.538Z,39.37
2022-12-13T04:38:38.486Z,39.27
2022-12-13T04:41:25.485Z,40.87
2022-12-13T04:44:28.224Z,40.50
2022-12-13T04:47:16.948Z,42.17
2022-12-13T04:50:04.302Z,37.93
2022-12-13T04:52:51.463Z,39.17
2022-12-13T04:55:38.423Z,38.03
2022-12-13T04:58:25.680Z,38.77
2022-12-13T05:01:13.048Z,38.83
2022-12-13T05:04:02.947Z,38.30
2022-12-13T05:06:50.019Z,41.87
2022-12-13T05:09:37.067Z,38.10
2022-12-13T05:12:24.014Z,39.10
2022-12-13T05:15:11.076Z,38.90
2022-12-13T05:18:09.966Z,40.87
2022-12-13T05:21:02.845Z,40.00
2022-12-13T05:23:49.787Z,41.03
2022-12-13T05:26:36.741Z,42.50
2022-12-13T05:29:23.674Z,37.33
2022-12-13T05:32:10.649Z,37.97
2022-12-13T05:34:57.620Z,38.50
2022-12-13T05:37:44.640Z,41.17
2022-12-13T05:40:32.280Z,40.30
2022-12-13T05:43:21.236Z,42.93
2022-12-13T05:46:08.876Z,35.47
2022-12-13T05:48:55.908Z,43.97
2022-12-13T05:51:43.512Z,40.23
2022-12-13T05:54:30.528Z,47.27
2022-12-13T05:57:17.420Z,43.73
2022-12-13T06:00:06.991Z,40.37
2022-12-13T06:03:14.107Z,37.43
2022-12-13T06:06:02.315Z,49.30
2022-12-13T06:08:49.474Z,38.43
2022-12-13T06:11:36.526Z,44.23
2022-12-13T06:14:30.544Z,42.90
2022-12-13T06:17:17.474Z,39.17
2022-12-13T06:20:23.602Z,41.97
2022-12-13T06:23:11.608Z,42.27
2022-12-13T06:25:58.831Z,41.23
2022-12-13T06:28:45.827Z,47.13
2022-12-13T06:31:32.860Z,47.87
2022-12-13T06:34:20.073Z,47.67
2022-12-13T06:37:10.862Z,47.03
2022-12-13T06:39:57.817Z,45.07
2022-12-13T06:42:45.103Z,44.37
2022-12-13T06:45:32.050Z,43.90
2022-12-13T06:48:20.409Z,46.10
2022-12-13T06:51:08.513Z,44.83
2022-12-13T06:53:56.543Z,50.93
2022-12-13T06:56:47.896Z,43.43
2022-12-13T06:59:34.957Z,49.03
2022-12-13T07:02:24.677Z,47.10
2022-12-13T07:05:12.481Z,45.20
2022-12-13T07:07:59.522Z,51.37
2022-12-13T07:10:47.435Z,50.53
2022-12-13T07:13:37.416Z,46.50
2022-12-13T07:16:25.170Z,49.40
2022-12-13T07:19:22.587Z,50.63
2022-12-13T07:22:11.258Z,50.60
2022-12-13T07:24:58.312Z,54.40
2022-12-13T07:27:46.172Z,51.27
2022-12-13T07:30:41.690Z,58.53
2022-12-13T07:33:32.735Z,51.93
2022-12-13T07:36:21.856Z,54.63
2022-12-13T07:39:08.874Z,51.70
2022-12-13T07:41:56.130Z,54.30
2022-12-13T07:44:43.216Z,43.67
2022-12-13T07:47:31.441Z,50.27
2022-12-13T07:50:25.781Z,54.43
2022-12-13T07:53:13.076Z,52.57
2022-12-13T07:56:08.068Z,50.53
2022-12-13T07:58:55.033Z,55.33
2022-12-13T08:01:42.051Z,51.50
2022-12-13T08:04:29.628Z,53.83
2022-12-13T08:07:25.065Z,57.27
2022-12-13T08:10:12.103Z,54.57
2022-12-13T08:12:59.365Z,56.77
2022-12-13T08:15:46.413Z,65.93
2022-12-13T08:18:34.117Z,53.70
2022-12-13T08:24:29.665Z,59.10
2022-12-13T08:27:16.645Z,57.53
2022-12-13T08:30:04.180Z,64.17
2022-12-13T08:32:51.210Z,62.03
2022-12-13T08:35:38.443Z,60.80
2022-12-13T08:38:28.304Z,57.80
2022-12-13T08:41:15.244Z,67.67
2022-12-13T08:44:02.431Z,65.40
2022-12-13T08:46:49.405Z,73.33
2022-12-13T08:49:36.445Z,68.17
2022-12-13T08:52:23.918Z,73.50
2022-12-13T08:55:12.593Z,57.83
2022-12-13T08:58:01.178Z,66.97
2022-12-13T09:00:48.567Z,58.63
2022-12-13T09:03:37.743Z,67.07
2022-12-13T09:06:24.825Z,56.10
2022-12-13T09:09:12.027Z,66.23
2022-12-13T09:12:00.072Z,60.50
2022-12-13T09:14:47.278Z,53.77
2022-12-13T09:17:36.438Z,63.60
2022-12-13T09:20:29.531Z,60.37
2022-12-13T09:23:24.334Z,53.93
2022-12-13T09:26:15.158Z,64.30
2022-12-13T09:29:11.395Z,55.37
2022-12-13T09:31:58.902Z,52.30
2022-12-13T09:34:47.408Z,60.60
2022-12-13T09:37:34.976Z,56.07
2022-12-13T09:40:28.256Z,59.70
2022-12-13T09:43:32.118Z,56.13
2022-12-13T09:46:34.666Z,53.60
2022-12-13T09:49:38.531Z,55.73
2022-12-13T09:52:26.584Z,60.17
2022-12-13T09:55:26.101Z,50.13
2022-12-13T09:58:27.630Z,54.80
2022-12-13T10:01:23.051Z,54.83
2022-12-13T10:04:15.765Z,53.83
2022-12-13T10:07:12.814Z,50.60
2022-12-13T10:10:04.277Z,49.37
2022-12-13T10:13:14.297Z,48.70
2022-12-13T10:16:07.280Z,51.50
2022-12-13T10:18:55.190Z,51.90
2022-12-13T10:21:44.650Z,48.30
2022-12-13T10:24:53.415Z,54.97
2022-12-13T10:27:45.931Z,54.23
2022-12-13T10:30:42.156Z,54.47
2022-12-13T10:33:50.486Z,48.43
2022-12-13T10:36:42.026Z,52.90
2022-12-13T10:39:40.662Z,50.70
2022-12-13T10:42:33.647Z,57.20
2022-12-13T10:45:23.493Z,53.97
2022-12-13T10:48:23.653Z,55.97
2022-12-13T10:51:14.119Z,54.50
2022-12-13T10:54:01.339Z,53.33
2022-12-13T10:56:54.062Z,59.90
2022-12-13T10:59:41.057Z,53.10
2022-12-13T11:02:32.652Z,52.07
2022-12-13T11:05:35.135Z,54.57
2022-12-13T11:08:27.808Z,54.97
2022-12-13T11:11:18.496Z,51.00
2022-12-13T11:14:05.515Z,50.33
2022-12-13T11:16:57.701Z,48.93
2022-12-13T11:19:47.931Z,45.13
2022-12-13T11:22:38.060Z,47.63
2022-12-13T11:25:38.673Z,47.23
2022-12-13T11:28:55.944Z,47.23
2022-12-13T11:31:52.692Z,49.00
2022-12-13T11:34:42.567Z,47.90
2022-12-13T11:38:01.160Z,52.47
2022-12-13T11:41:04.152Z,48.23
2022-12-13T11:44:25.600Z,46.80
2022-12-13T11:47:20.877Z,51.13
2022-12-13T11:50:21.765Z,44.70
2022-12-13T11:53:56.892Z,44.57
2022-12-13T11:56:44.569Z,46.73
2022-12-13T11:59:40.685Z,52.00
2022-12-13T12:02:35.481Z,48.70
2022-12-13T12:05:48.464Z,44.83
2022-12-13T12:08:51.007Z,45.53
2022-12-13T12:11:44.106Z,39.93
2022-12-13T12:14:46.564Z,43.03
2022-12-13T12:17:42.286Z,46.27
2022-12-13T12:21:05.249Z,46.57
2022-12-13T12:24:07.442Z,47.50
2022-12-13T12:27:12.638Z,46.20
2022-12-13T12:30:23.536Z,45.43
2022-12-13T12:33:38.732Z,43.97
2022-12-13T12:36:50.533Z,48.40
2022-12-13T12:39:51.157Z,41.47
2022-12-13T12:46:15.105Z,45.10
2022-12-13T12:49:08.428Z,45.00
2022-12-13T12:52:30.057Z,44.17
2022-12-13T12:55:27.182Z,48.43
2022-12-13T12:58:23.633Z,42.80
2022-12-13T13:01:14.001Z,49.10
2022-12-13T13:04:08.038Z,45.90
2022-12-13T13:07:22.469Z,46.47
2022-12-13T13:10:26.406Z,47.63
2022-12-13T13:13:46.028Z,41.27
2022-12-13T13:16:40.532Z,41.70
2022-12-13T13:19:33.145Z,46.33
2022-12-13T13:22:32.353Z,45.57
2022-12-13T13:25:28.291Z,44.20
2022-12-13T13:28:18.078Z,41.93
2022-12-13T13:31:09.117Z,44.40
2022-12-13T13:33:56.307Z,44.97
2022-12-13T13:36:43.418Z,42.30
2022-12-13T13:39:33.999Z,43.20
2022-12-13T13:42:26.137Z,46.43
2022-12-13T13:45:25.245Z,38.67
2022-12-13T13:48:24.623Z,43.80
2022-12-13T13:51:26.893Z,47.77
2022-12-13T13:54:32.761Z,41.20
2022-12-13T13:58:08.383Z,37.87
2022-12-13T14:01:25.224Z,39.27
2022-12-13T14:04:46.480Z,39.50
2022-12-13T14:07:53.932Z,42.77
2022-12-13T14:14:22.764Z,42.57
2022-12-13T14:17:25.286Z,41.97
2022-12-13T14:20:27.442Z,40.33
2022-12-13T14:23:33.675Z,44.07
2022-12-13T14:26:52.003Z,45.70
2022-12-13T14:29:48.093Z,40.87
2022-12-13T14:32:39.382Z,45.97
2022-12-13T14:35:34.956Z,44.57
2022-12-13T14:38:26.984Z,46.70
2022-12-13T14:41:18.903Z,46.27
2022-12-13T14:44:35.705Z,45.03
2022-12-13T14:47:38.753Z,40.30
2022-12-13T14:50:50.777Z,48.83
2022-12-13T14:53:44.254Z,45.40
2022-12-13T14:56:34.716Z,43.53
2022-12-13T14:59:26.271Z,50.93
2022-12-13T15:02:31.255Z,51.17
2022-12-13T15:05:30.243Z,42.07
2022-12-13T15:08:19.200Z,45.87
2022-12-13T15:11:10.370Z,49.87
2022-12-13T15:13:57.722Z,45.43
2022-12-13T15:16:53.992Z,46.27
2022-12-13T15:19:48.798Z,43.63
2022-12-13T15:25:40.229Z,51.87
2022-12-13T15:28:30.167Z,47.00
2022-12-13T15:31:28.343Z,52.67
2022-12-13T15:34:31.143Z,50.07
2022-12-13T15:37:33.632Z,45.57
2022-12-13T15:43:33.576Z,50.27
2022-12-13T15:46:26.592Z,53.77
2022-12-13T15:49:33.294Z,63.13
2022-12-13T15:52:44.570Z,62.13
2022-12-13T15:55:50.498Z,56.60
2022-12-13T15:58:38.165Z,53.97
2022-12-13T16:01:34.028Z,56.10
2022-12-13T16:04:27.314Z,62.33
2022-12-13T16:12:24.322Z,62.37
2022-12-13T16:15:33.016Z,62.47
2022-12-13T16:18:34.821Z,62.93
2022-12-13T16:21:25.275Z,61.67
2022-12-13T16:28:06.409Z,62.10
2022-12-13T16:31:05.422Z,61.43
2022-12-13T16:34:00.221Z,55.03
2022-12-13T16:36:56.998Z,60.60
2022-12-13T16:39:45.380Z,58.20
2022-12-13T16:42:36.997Z,57.87
2022-12-13T16:48:35.612Z,75.30
2022-12-13T16:54:34.773Z,70.53
2022-12-13T16:57:54.079Z,62.07
2022-12-13T17:00:51.293Z,61.43
2022-12-13T17:03:52.630Z,62.97
2022-12-13T17:06:42.712Z,70.60
2022-12-13T17:09:32.325Z,67.43
2022-12-13T17:12:21.044Z,64.03
2022-12-13T17:15:09.788Z,70.87
2022-12-13T17:17:57.024Z,60.10
2022-12-13T17:20:44.020Z,62.40
2022-12-13T17:23:32.254Z,65.83
2022-12-13T17:26:19.505Z,60.43
2022-12-13T17:29:06.748Z,63.97
2022-12-13T17:31:53.826Z,64.57
2022-12-13T17:34:41.536Z,67.27
2022-12-13T17:37:31.469Z,77.57
2022-12-13T17:40:20.248Z,69.27
2022-12-13T17:43:08.349Z,72.90
2022-12-13T17:46:12.554Z,64.20
2022-12-13T17:49:02.090Z,70.30
2022-12-13T17:51:52.875Z,65.30
2022-12-13T18:01:23.728Z,73.73
2022-12-13T18:04:12.697Z,68.27
2022-12-13T18:07:00.588Z,65.33
2022-12-13T18:09:48.387Z,64.40
2022-12-13T18:12:35.457Z,68.10
2022-12-13T18:15:22.841Z,64.63
2022-12-13T18:18:12.395Z,71.13
2022-12-13T18:21:09.809Z,76.33
2022-12-13T18:23:56.873Z,82.07
2022-12-13T18:26:44.180Z,69.77
2022-12-13T18:29:31.303Z,73.87
2022-12-13T18:32:18.327Z,68.87
2022-12-13T18:35:05.868Z,62.03
2022-12-13T18:37:52.976Z,64.20
2022-12-13T18:40:40.177Z,63.37
2022-12-13T18:43:27.286Z,79.50
2022-12-13T18:46:15.572Z,82.43
2022-12-13T18:49:03.292Z,89.97
2022-12-13T18:51:50.637Z,84.93
2022-12-13T18:54:38.052Z,78.37
2022-12-13T18:57:41.049Z,84.90
2022-12-13T19:00:31.676Z,81.80
2022-12-13T19:03:32.600Z,76.77
2022-12-13T19:06:25.525Z,83.40
2022-12-13T19:09:15.639Z,87.97
2022-12-13T19:12:04.472Z,77.73
2022-12-13T19:14:54.821Z,81.80
2022-12-13T19:17:42.966Z,80.10
2022-12-13T19:20:35.066Z,81.80
2022-12-13T19:23:26.726Z,68.67
2022-12-13T19:26:15.458Z,80.47
2022-12-13T19:29:03.677Z,68.83
2022-12-13T19:31:51.000Z,73.20
2022-12-13T19:34:39.888Z,72.47
2022-12-13T19:37:40.800Z,72.37
2022-12-13T19:43:52.805Z,81.30
2022-12-13T19:46:51.172Z,93.77
2022-12-13T19:50:11.046Z,86.60
2022-12-13T19:53:01.388Z,89.00
2022-12-13T19:59:21.279Z,98.27
2022-12-13T20:02:24.646Z,91.50
2022-12-13T20:05:35.989Z,95.43
2022-12-13T20:09:01.822Z,95.23
2022-12-13T20:11:54.467Z,84.73
2022-12-13T20:14:53.661Z,80.97
2022-12-13T20:18:03.061Z,91.60
2022-12-13T20:21:15.342Z,80.47
2022-12-13T20:24:03.436Z,82.03
2022-12-13T20:27:20.091Z,77.27
2022-12-13T20:30:15.403Z,85.87
2022-12-13T20:33:07.161Z,88.20
2022-12-13T20:36:27.637Z,85.43
2022-12-13T20:39:18.758Z,84.57
2022-12-13T20:42:06.301Z,75.27
2022-12-13T20:44:54.438Z,74.93
2022-12-13T20:47:42.761Z,78.10
2022-12-13T20:50:31.731Z,73.53
2022-12-13T20:53:26.324Z,74.87
2022-12-13T20:56:30.639Z,68.93
2022-12-13T20:59:18.059Z,74.47
2022-12-13T21:02:07.834Z,65.57
2022-12-13T21:04:59.989Z,60.53
2022-12-13T21:08:06.944Z,58.93
2022-12-13T21:11:20.834Z,55.83
2022-12-13T21:14:18.766Z,60.33
2022-12-13T21:17:11.585Z,58.93
2022-12-13T21:19:59.572Z,55.67
2022-12-13T21:22:47.937Z,49.13
2022-12-13T21:25:41.898Z,49.30
2022-12-13T21:28:30.045Z,52.33
2022-12-13T21:31:23.614Z,50.70
2022-12-13T21:34:13.083Z,45.53
2022-12-13T21:37:00.754Z,44.33
2022-12-13T21:39:48.158Z,45.53
2022-12-13T21:42:36.343Z,40.57
2022-12-13T21:45:26.131Z,48.60
2022-12-13T21:48:15.045Z,50.57
2022-12-13T21:51:12.042Z,49.20
2022-12-13T21:54:14.718Z,51.10
2022-12-13T21:57:23.927Z,45.50
2022-12-13T22:00:14.900Z,48.13
2022-12-13T22:03:08.741Z,50.40
2022-12-13T22:06:09.407Z,55.63
2022-12-13T22:09:07.292Z,52.47
2022-12-13T22:11:58.374Z,49.03
2022-12-13T22:15:01.551Z,53.70
2022-12-13T22:18:15.869Z,53.47
2022-12-13T22:21:21.086Z,48.17
2022-12-13T22:24:25.230Z,49.80
2022-12-13T22:27:23.068Z,49.33
2022-12-13T22:30:18.582Z,51.10
2022-12-13T22:33:05.631Z,47.97
2022-12-13T22:35:52.601Z,54.77
2022-12-13T22:38:39.552Z,47.73
2022-12-13T22:41:26.542Z,49.27
2022-12-13T22:44:15.031Z,47.93
2022-12-13T22:47:02.187Z,45.13
2022-12-13T22:49:49.356Z,49.87
2022-12-13T22:52:36.393Z,43.67
2022-12-13T22:55:23.389Z,45.17
2022-12-13T22:58:10.425Z,48.13
2022-12-13T23:00:57.446Z,44.13
2022-12-13T23:03:45.633Z,47.53
2022-12-13T23:06:37.144Z,50.27
2022-12-13T23:09:24.076Z,48.13
2022-12-13T23:12:30.531Z,43.03
2022-12-13T23:15:17.495Z,46.93
2022-12-13T23:18:04.480Z,51.17
2022-12-13T23:20:51.438Z,49.47
2022-12-13T23:23:39.952Z,48.97
2022-12-13T23:26:29.757Z,44.50
2022-12-13T23:29:16.752Z,47.00
2022-12-13T23:32:03.928Z,39.23
2022-12-13T23:34:51.022Z,48.47
2022-12-13T23:37:38.437Z,48.50
2022-12-13T23:40:25.429Z,49.47
2022-12-13T23:43:12.405Z,47.87
2022-12-13T23:46:00.757Z,43.90
2022-12-13T23:48:48.211Z,47.23
2022-12-13T23:51:37.776Z,50.47
2022-12-13T23:54:24.779Z,49.47
2022-12-13T23:57:11.757Z,48.73
2022-12-13T23:59:58.670Z,44.87
